Kezdőlap
METAR-TAF:

METAR-TAF

Repülőterek :

Szunani nemzetközi repülőtér

Phenjan, Észak-Korea

földrajzi szélesség: 39-02N, földrajzi hosszúság: 125-47E, magasság: 36 m

METAR: hiányzik

Idő: 05:52 (20:52 UTC)

Előrejelzés

A jelentés 10 órával és 47 perccel ezelõtt készült, 10:05 UTC
Az előrejelzés 17-én 12 óra UTC és 18-én 12 óra UTC között érvényes
Déli szél 10 kt széllökések: 19 kt
Látótávolság: 6000 m
Szórványos felhőzet 1300 lábon
Szakadozott felhőzet 1700 lábon
enyhe esõ
17-én 12 óra UTC és 17-én 17 óra UTC között ideiglenes
Látótávolság: 3000 m
esõ
17-én 20 óra UTC és 17-én 22 óra UTC között fokozatosan kialakuló
Látótávolság 10 km, vagy több
felhőtlen 1500 m magasságban, és nincs gomolyfelhõ

TAF: ZKPY 171005Z 1712/1812 18005G10MPS 6000 -RA SCT013 BKN017 TX07/1712Z TNM01/1722Z TEMPO 1712/1717 3000 RA BECMG 1720/1722 CAVOK

Meteorológiai megfigyelések és előrejelzések több, mint 4000 repülőtéren (METAR és TAF jelentéseket).

A térképen piros és sárga pontok jelzik az elérhető meteorológiai állomásokat.

Mozgassa az egeret a pont fölött, hogy megjelenjen az állomás neve.

Azután kattintson az időjárási megfigyelések és előrejelzések megtekintéséhez.

A térkép megváltoztatása: kattintson a fekete keresztel jelölt zöld gombra ráközelítéshez, a vonallal jelölt zöld gombra távolításhoz, vagy a zöld nyilakra a szomszédos térképek eléréséhez.


METAR-TAF: